Dickinson, Texas
Current Conditions -  °F | °C
As of 10:53 AM on Thursday 27 Nov 2014 (Local Time) from KLVJ Reporting Station
Clear Clear  
Wind Chill: 60°   Ceiling: Unl
Heat Index: 60°   Visibility: 10mi
Dew Point: 30°   Wind: 12mph
Humidity: 32%   Direction: 80°E
Pressure: 30.51"   Gusts: 25mph
Location:  29.46°N, 95.05°W
Report Text: KLVJ 271653Z AUTO 08010G22KT 10SM CLR 16/M01 A3051 RMK AO2 SLP332 T01561011
Loading
Personal Weather Stations






























Interactive Weather Map New forecast layout! Learn more

10-Day Weather Forecast

Advertisements
Track Severe Weather on mobile